Plainview, Illinois
Current Conditions -  °F | °C
As of 11:15 PM on Tuesday 25 Nov 2014 (Local Time) from KALN Reporting Station
Clear Clear  
Wind Chill: 20°   Ceiling: Unl
Heat Index: 26°   Visibility: 10mi
Dew Point: 24°   Wind: 5mph
Humidity: 92%   Direction: 140°SE
Pressure: 30.17"   Gusts: NA
Location:  39.138°N, 90.0562°W
Report Text: KALN 260515Z AUTO 14004KT 10SM CLR M03/M05 A3017 RMK AO2 T10351047
Loading
Personal Weather Stations






























Interactive Weather Map New forecast layout! Learn more

10-Day Weather Forecast

Advertisements
Track Severe Weather on mobile